Time;durP1;ratioP1;P1;durP2;ratioP2;P2;SDS_P1;SDS_P2;PMS_P1;PMS_P2;Temp;Humidity;BMP_temperature;BMP_pressure;BME280_temperature;BME280_humidity;BME280_pressure;Samples;Min_cycle;Max_cycle;Signal;HPM_P1;HPM_P2
2023/12/16 00:00:57;;;;;;;;;;;5.70;99.90;;;5.17;100.00;100137.47;5017969;28;1448;-68
2023/12/16 00:03:26;;;;;;;;;;;5.70;99.90;;;5.17;100.00;100145.19;4986773;28;1631;-69
2023/12/16 00:05:54;;;;;;;;;;;5.80;99.90;;;5.07;100.00;100145.88;5010692;28;1500;-68
2023/12/16 00:08:22;;;;;;;;;;;5.80;99.90;;;4.90;100.00;100136.91;4963667;28;1640;-68
2023/12/16 00:10:48;;;;;;;;;;;5.80;99.90;;;5.04;100.00;100150.97;4979986;28;1692;-68
2023/12/16 00:13:20;;;;;;;;;;;5.70;99.90;;;4.97;100.00;100157.69;4979658;28;1965;-69
2023/12/16 00:15:47;;;;;;;;;;;5.70;99.90;;;4.87;100.00;100145.44;4976638;28;1899;-68
2023/12/16 00:18:14;;;;;;;;;;;5.70;99.90;;;4.80;100.00;100147.00;4980603;28;1648;-69
2023/12/16 00:20:41;;;;;;;;;;;5.70;99.90;;;4.74;100.00;100136.56;4978283;28;1553;-69
2023/12/16 00:23:08;;;;;;;;;;;5.60;99.90;;;4.83;100.00;100143.63;4979570;28;1574;-69
2023/12/16 00:25:35;;;;;;;;;;;5.60;99.90;;;4.81;100.00;100138.47;4979478;28;1535;-68
2023/12/16 00:28:02;;;;;;;;;;;5.60;99.90;;;4.98;100.00;100135.38;4977377;28;1499;-69
2023/12/16 00:30:28;;;;;;;;;;;5.50;99.90;;;4.77;100.00;100143.50;4980374;28;1534;-69
2023/12/16 00:32:55;;;;;;;;;;;5.60;99.90;;;4.87;100.00;100142.88;4985143;28;1902;-68
2023/12/16 00:35:22;;;;;;;;;;;5.60;99.90;;;4.84;100.00;100141.94;4987929;28;1537;-69
2023/12/16 00:37:50;;;;;;;;;;;5.60;99.90;;;4.82;100.00;100147.91;4988147;28;1480;-68
2023/12/16 00:40:19;;;;;;;;;;;5.60;99.90;;;4.86;100.00;100146.28;4988116;28;1592;-68
2023/12/16 00:42:46;;;;;;;;;;;5.70;99.90;;;4.81;100.00;100140.16;5015894;28;1411;-68
2023/12/16 00:45:13;;;;;;;;;;;5.60;99.90;;;4.81;100.00;100135.00;4985002;28;1505;-68
2023/12/16 00:47:40;;;;;;;;;;;5.60;99.90;;;4.85;100.00;100134.22;4987715;28;1492;-69
2023/12/16 00:50:09;;;;;;;;;;;5.60;99.90;;;4.80;100.00;100129.00;4986425;28;1723;-68
2023/12/16 00:52:36;;;;;;;;;;;5.60;99.90;;;4.76;100.00;100137.47;4986171;28;1975;-68
2023/12/16 00:55:03;;;;;;;;;;;5.60;99.90;;;4.79;100.00;100139.28;4985189;28;1461;-69
2023/12/16 00:57:30;;;;;;;;;;;5.60;99.90;;;4.84;100.00;100134.22;5016217;28;1572;-68
2023/12/16 00:59:57;;;;;;;;;;;5.60;99.90;;;4.80;100.00;100144.44;4986782;28;1371;-68
2023/12/16 01:02:24;;;;;;;;;;;5.50;99.90;;;4.81;100.00;100142.72;4988474;28;1581;-68
2023/12/16 01:04:52;;;;;;;;;;;5.50;99.90;;;4.80;100.00;100149.56;4985873;28;1430;-69
2023/12/16 01:07:19;;;;;;;;;;;5.50;99.90;;;4.88;100.00;100156.59;4985532;28;1739;-69
2023/12/16 01:09:46;;;;;;;;;;;5.50;99.90;;;4.93;100.00;100148.16;5017598;28;1460;-68
2023/12/16 01:12:13;;;;;;;;;;;5.60;99.90;;;5.03;100.00;100157.78;4985792;28;1978;-68
2023/12/16 01:14:40;;;;;;;;;;;5.70;99.90;;;5.03;100.00;100152.63;4985812;28;1410;-68
2023/12/16 01:17:06;;;;;;;;;;;5.70;99.90;;;5.15;100.00;100148.59;4984261;28;1598;-68
2023/12/16 01:19:33;;;;;;;;;;;5.80;99.90;;;5.30;100.00;100148.91;4982058;28;1431;-69
2023/12/16 01:22:01;;;;;;;;;;;5.80;99.90;;;5.31;100.00;100154.91;4986161;28;1539;-68
2023/12/16 01:24:29;;;;;;;;;;;5.90;99.90;;;5.41;100.00;100151.69;5014566;28;1324;-68
2023/12/16 01:26:55;;;;;;;;;;;5.90;99.90;;;5.21;100.00;100149.59;4984891;28;1427;-68
2023/12/16 01:29:22;;;;;;;;;;;5.90;99.90;;;5.05;100.00;100138.94;4989460;28;1371;-68
2023/12/16 01:31:50;;;;;;;;;;;5.90;99.90;;;4.93;100.00;100140.44;4989306;28;1890;-69
2023/12/16 01:34:17;;;;;;;;;;;5.80;99.90;;;4.92;100.00;100137.81;4987282;28;1348;-68
2023/12/16 01:36:43;;;;;;;;;;;5.80;99.90;;;4.79;100.00;100137.56;4990850;28;1438;-68
2023/12/16 01:39:11;;;;;;;;;;;5.70;99.90;;;4.95;100.00;100140.44;4986502;28;1543;-68
2023/12/16 01:41:40;;;;;;;;;;;5.70;99.90;;;4.94;100.00;100131.00;4989030;28;1399;-69
2023/12/16 01:44:07;;;;;;;;;;;5.70;99.90;;;4.95;100.00;100140.44;4988698;28;1363;-69
2023/12/16 01:46:35;;;;;;;;;;;5.70;99.90;;;5.18;100.00;100148.66;4986763;28;1547;-70
2023/12/16 01:49:02;;;;;;;;;;;5.80;99.90;;;5.25;100.00;100155.66;4986773;28;1375;-69
2023/12/16 01:51:31;;;;;;;;;;;5.80;99.90;;;5.33;100.00;100150.66;5019215;28;1902;-69
2023/12/16 01:53:58;;;;;;;;;;;5.90;99.90;;;5.35;100.00;100149.84;4984019;28;1452;-69
2023/12/16 01:56:28;;;;;;;;;;;5.90;99.90;;;5.37;100.00;100155.91;5017480;28;1364;-68
2023/12/16 01:58:55;;;;;;;;;;;6.00;99.90;;;5.35;100.00;100154.13;5014191;28;1380;-68
2023/12/16 02:01:22;;;;;;;;;;;6.00;99.90;;;5.33;100.00;100151.53;4988094;28;1424;-68
2023/12/16 02:03:50;;;;;;;;;;;6.00;99.90;;;5.32;100.00;100154.97;4985180;28;1478;-68
2023/12/16 02:06:17;;;;;;;;;;;6.00;99.90;;;5.20;100.00;100154.69;4999104;28;1514;-68
2023/12/16 02:08:45;;;;;;;;;;;5.90;99.90;;;5.28;100.00;100160.88;4984830;28;1519;-68
2023/12/16 02:11:12;;;;;;;;;;;6.00;99.90;;;5.23;100.00;100157.34;4986936;28;1850;-68
2023/12/16 02:13:42;;;;;;;;;;;6.00;99.90;;;5.40;100.00;100157.66;4984222;28;1985;-68
2023/12/16 02:16:12;;;;;;;;;;;6.00;99.90;;;5.34;100.00;100160.16;4984442;28;1327;-69
2023/12/16 02:18:39;;;;;;;;;;;6.00;99.90;;;5.36;100.00;100158.44;4984359;28;1426;-69
2023/12/16 02:21:06;;;;;;;;;;;6.00;99.90;;;5.35;100.00;100161.88;4987970;28;1495;-69
2023/12/16 02:23:33;;;;;;;;;;;6.00;99.90;;;5.33;100.00;100163.53;4986615;28;1312;-68
2023/12/16 02:26:00;;;;;;;;;;;6.00;99.90;;;5.43;100.00;100161.19;4985289;28;1454;-69
2023/12/16 02:28:27;;;;;;;;;;;6.00;99.90;;;5.45;100.00;100174.06;5015377;28;1406;-68
2023/12/16 02:30:54;;;;;;;;;;;6.00;99.90;;;5.31;100.00;100160.06;4986514;28;1501;-69
2023/12/16 02:33:21;;;;;;;;;;;6.00;99.90;;;5.28;100.00;100171.19;4985321;28;1930;-69
2023/12/16 02:35:49;;;;;;;;;;;6.00;99.90;;;5.17;100.00;100170.94;4987653;28;1382;-69
2023/12/16 02:38:15;;;;;;;;;;;6.00;99.90;;;5.14;100.00;100170.03;4983560;28;1389;-68
2023/12/16 02:40:43;;;;;;;;;;;5.90;99.90;;;5.28;100.00;100168.59;4984546;28;1948;-69
2023/12/16 02:43:10;;;;;;;;;;;6.00;99.90;;;5.40;100.00;100167.97;4986196;28;1425;-69
2023/12/16 02:45:37;;;;;;;;;;;6.00;99.90;;;5.51;100.00;100175.91;4986775;28;1383;-69
2023/12/16 02:48:04;;;;;;;;;;;6.00;99.90;;;5.37;100.00;100183.38;4986568;28;1528;-69
2023/12/16 02:50:31;;;;;;;;;;;6.10;99.90;;;5.43;100.00;100186.09;4987507;28;1557;-69
2023/12/16 02:52:59;;;;;;;;;;;6.00;99.90;;;5.26;100.00;100193.44;4984199;28;1895;-69
2023/12/16 02:55:26;;;;;;;;;;;6.00;99.90;;;5.29;100.00;100196.09;4985875;28;1410;-68
2023/12/16 02:57:53;;;;;;;;;;;6.00;99.90;;;5.47;100.00;100203.31;4982797;28;1515;-68
2023/12/16 03:00:20;;;;;;;;;;;6.00;99.90;;;5.47;100.00;100195.59;4984930;28;1445;-69
2023/12/16 03:02:47;;;;;;;;;;;6.10;99.90;;;5.45;100.00;100202.41;4987213;28;1453;-68
2023/12/16 03:05:14;;;;;;;;;;;6.10;99.90;;;5.38;100.00;100201.44;4986162;28;1415;-68
2023/12/16 03:07:41;;;;;;;;;;;6.10;99.90;;;5.39;100.00;100197.16;4986515;28;1382;-69
2023/12/16 03:10:08;;;;;;;;;;;6.00;99.90;;;5.29;100.00;100195.22;4984870;28;1367;-68
2023/12/16 03:12:35;;;;;;;;;;;6.00;99.90;;;5.11;100.00;100201.75;4986835;28;1997;-68
2023/12/16 03:15:03;;;;;;;;;;;6.00;99.90;;;5.25;100.00;100202.03;4984932;28;1415;-69
2023/12/16 03:17:30;;;;;;;;;;;5.90;99.90;;;5.28;100.00;100194.34;4984717;28;1469;-68
2023/12/16 03:19:57;;;;;;;;;;;5.90;99.90;;;5.21;100.00;100202.78;4987644;28;1481;-68
2023/12/16 03:22:24;;;;;;;;;;;5.90;99.90;;;5.30;100.00;100204.69;4987198;28;1391;-69
2023/12/16 03:24:51;;;;;;;;;;;5.90;99.90;;;5.20;100.00;100206.19;5014240;28;1321;-68
2023/12/16 03:27:18;;;;;;;;;;;5.80;99.90;;;5.04;100.00;100199.88;4984810;28;1473;-69
2023/12/16 03:29:45;;;;;;;;;;;5.70;99.90;;;4.77;100.00;100207.84;4985773;28;1535;-68
2023/12/16 03:32:12;;;;;;;;;;;5.70;99.90;;;4.69;100.00;100199.94;5013827;28;1919;-68
2023/12/16 03:34:38;;;;;;;;;;;5.70;99.90;;;4.87;100.00;100199.47;5013757;28;1364;-68
2023/12/16 03:37:06;;;;;;;;;;;5.60;99.90;;;5.01;100.00;100199.78;4987195;28;1182;-69
2023/12/16 03:39:32;;;;;;;;;;;5.50;99.90;;;4.90;100.00;100202.09;4989829;28;1454;-68
2023/12/16 03:41:59;;;;;;;;;;;5.50;99.90;;;4.97;100.00;100201.44;4985264;28;1485;-68
2023/12/16 03:44:26;;;;;;;;;;;5.50;99.90;;;4.92;100.00;100205.59;5020350;28;1460;-68
2023/12/16 03:46:53;;;;;;;;;;;5.50;99.90;;;4.92;100.00;100204.72;4987967;28;1447;-69
2023/12/16 03:49:20;;;;;;;;;;;5.50;99.90;;;4.95;100.00;100200.53;4987648;28;1412;-68
2023/12/16 03:51:47;;;;;;;;;;;5.60;99.90;;;5.15;100.00;100194.94;4987322;28;1400;-68
2023/12/16 03:54:14;;;;;;;;;;;5.70;99.90;;;5.25;100.00;100199.44;4990064;28;2001;-69
2023/12/16 03:56:41;;;;;;;;;;;5.80;99.90;;;5.29;100.00;100202.94;4988516;28;1525;-69
2023/12/16 03:59:08;;;;;;;;;;;5.80;99.90;;;5.29;100.00;100202.94;4988431;28;1339;-69
2023/12/16 04:01:35;;;;;;;;;;;5.80;99.90;;;5.23;100.00;100201.13;4985782;28;1406;-68
2023/12/16 04:04:02;;;;;;;;;;;5.70;99.90;;;5.07;100.00;100199.94;4988156;28;1406;-69
2023/12/16 04:06:31;;;;;;;;;;;5.70;99.90;;;4.99;100.00;100197.16;5017397;28;1653;-68
2023/12/16 04:08:57;;;;;;;;;;;5.70;99.90;;;5.12;100.00;100198.31;4983870;28;1605;-69
2023/12/16 04:11:24;;;;;;;;;;;5.70;99.90;;;5.13;100.00;100200.06;4989285;28;1406;-68
2023/12/16 04:13:51;;;;;;;;;;;5.70;99.90;;;5.12;100.00;100192.31;4986926;28;1922;-68
2023/12/16 04:16:19;;;;;;;;;;;5.80;99.90;;;4.93;100.00;100201.34;5015933;28;1486;-69
2023/12/16 04:18:46;;;;;;;;;;;5.70;99.90;;;4.92;100.00;100200.44;4990794;28;1418;-68
2023/12/16 04:21:13;;;;;;;;;;;5.50;99.90;;;4.91;100.00;100206.44;5018301;28;1323;-69
2023/12/16 04:23:42;;;;;;;;;;;5.40;99.90;;;4.77;100.00;100210.41;4988801;28;1423;-68
2023/12/16 04:26:09;;;;;;;;;;;5.40;99.90;;;4.67;100.00;100213.59;4988698;28;1379;-69
2023/12/16 04:28:36;;;;;;;;;;;5.40;99.90;;;4.66;100.00;100211.88;4988468;28;1394;-68
2023/12/16 04:31:03;;;;;;;;;;;5.50;99.90;;;4.55;100.00;100220.19;4989651;28;1359;-69
2023/12/16 04:33:30;;;;;;;;;;;5.50;99.90;;;4.61;100.00;100214.34;4987644;28;1915;-69
2023/12/16 04:35:57;;;;;;;;;;;5.40;99.90;;;4.64;100.00;100208.38;4988087;28;1438;-68
2023/12/16 04:38:24;;;;;;;;;;;5.30;99.90;;;4.45;100.00;100213.09;4987027;28;1407;-68
2023/12/16 04:40:51;;;;;;;;;;;5.20;99.90;;;4.46;100.00;100209.66;4988767;28;1386;-71
2023/12/16 04:43:18;;;;;;;;;;;5.10;99.90;;;4.43;100.00;100211.31;4988297;28;1411;-68
2023/12/16 04:45:46;;;;;;;;;;;5.10;99.90;;;4.49;100.00;100204.59;4986196;28;1409;-68
2023/12/16 04:48:13;;;;;;;;;;;5.00;99.90;;;4.24;100.00;100202.25;4988188;28;1419;-69
2023/12/16 04:50:41;;;;;;;;;;;5.00;99.90;;;4.17;100.00;100190.94;4987020;28;1351;-68
2023/12/16 04:53:07;;;;;;;;;;;5.00;99.90;;;4.25;100.00;100201.44;4989988;28;1898;-68
2023/12/16 04:55:34;;;;;;;;;;;5.10;99.90;;;4.32;100.00;100204.19;4987133;28;1434;-69
2023/12/16 04:58:01;;;;;;;;;;;5.00;99.90;;;4.22;100.00;100196.22;4989355;28;1580;-68
2023/12/16 05:00:28;;;;;;;;;;;5.00;99.90;;;4.15;100.00;100201.22;4988093;28;1283;-69
2023/12/16 05:02:55;;;;;;;;;;;5.00;99.90;;;4.27;100.00;100205.78;4989356;28;1366;-68
2023/12/16 05:05:22;;;;;;;;;;;5.00;99.90;;;4.32;100.00;100204.19;4987051;28;1771;-68
2023/12/16 05:07:48;;;;;;;;;;;5.00;99.90;;;4.39;100.00;100203.50;4988028;28;1449;-69
2023/12/16 05:10:15;;;;;;;;;;;5.10;99.90;;;4.44;100.00;100205.34;4983869;28;1407;-68
2023/12/16 05:12:42;;;;;;;;;;;5.20;99.90;;;4.31;100.00;100223.03;4988492;28;1910;-69
2023/12/16 05:15:12;;;;;;;;;;;5.20;99.90;;;4.20;100.00;100221.91;4986353;28;1377;-69
2023/12/16 05:17:39;;;;;;;;;;;5.10;99.90;;;4.12;100.00;100226.81;4984515;28;1422;-69
2023/12/16 05:20:06;;;;;;;;;;;5.00;99.90;;;4.09;100.00;100215.59;5017690;28;1399;-69
2023/12/16 05:22:33;;;;;;;;;;;5.00;99.90;;;4.24;100.00;100218.53;5017989;28;1411;-69
2023/12/16 05:25:02;;;;;;;;;;;5.10;99.90;;;4.29;100.00;100222.13;4986751;28;1320;-68
2023/12/16 05:27:29;;;;;;;;;;;5.10;99.90;;;4.21;100.00;100222.75;4988089;28;1469;-68
2023/12/16 05:29:58;;;;;;;;;;;5.10;99.90;;;4.29;100.00;100226.38;5001522;28;1350;-69
2023/12/16 05:32:26;;;;;;;;;;;5.00;99.90;;;4.14;100.00;100224.31;4987946;28;1997;-68
2023/12/16 05:34:56;;;;;;;;;;;4.90;99.90;;;4.19;100.00;100225.28;4988986;28;1516;-68
2023/12/16 05:37:23;;;;;;;;;;;4.90;99.90;;;4.20;100.00;100221.91;5015730;28;1392;-68
2023/12/16 05:39:50;;;;;;;;;;;4.90;99.90;;;4.07;100.00;100230.13;5016093;28;2250;-68
2023/12/16 05:42:19;;;;;;;;;;;4.90;99.90;;;4.01;100.00;100232.53;4986593;28;1384;-68
2023/12/16 05:44:46;;;;;;;;;;;4.90;99.90;;;4.07;100.00;100224.97;4988058;28;1446;-69
2023/12/16 05:47:13;;;;;;;;;;;4.90;99.90;;;3.95;100.00;100235.81;4988100;28;1399;-68
2023/12/16 05:49:40;;;;;;;;;;;4.90;99.90;;;3.97;100.00;100229.88;4985250;28;1458;-68
2023/12/16 05:52:07;;;;;;;;;;;4.90;99.90;;;4.02;100.00;100226.56;4987294;28;1308;-68
2023/12/16 05:54:34;;;;;;;;;;;;;;;3.98;100.00;100230.75;4987017;28;1954;-68
2023/12/16 05:57:01;;;;;;;;;;;4.80;99.90;;;3.84;100.00;100232.94;4985494;28;1462;-69
2023/12/16 05:59:28;;;;;;;;;;;4.70;99.90;;;3.76;100.00;100225.03;5000538;28;1519;-68
2023/12/16 06:01:55;;;;;;;;;;;4.60;99.90;;;3.86;100.00;100213.31;4985177;28;1491;-69
2023/12/16 06:04:22;;;;;;;;;;;4.60;99.90;;;3.83;100.00;100222.63;4984400;28;1437;-68
2023/12/16 06:06:49;;;;;;;;;;;4.60;99.90;;;3.71;100.00;100225.72;4986284;28;1580;-69
2023/12/16 06:09:16;;;;;;;;;;;4.60;99.90;;;3.63;100.00;100228.09;4985671;28;1697;-69
2023/12/16 06:11:43;;;;;;;;;;;4.60;99.90;;;3.70;100.00;100232.56;4983566;28;1375;-68
2023/12/16 06:14:10;;;;;;;;;;;4.50;99.90;;;3.60;100.00;100234.81;4998376;28;2017;-67
2023/12/16 06:16:37;;;;;;;;;;;4.40;99.90;;;3.42;100.00;100230.03;5012386;28;1390;-67
2023/12/16 06:19:04;;;;;;;;;;;4.40;99.90;;;3.41;100.00;100238.59;5016794;28;1437;-68
2023/12/16 06:21:31;;;;;;;;;;;4.40;99.90;;;3.45;100.00;100236.16;4987601;28;1335;-69
2023/12/16 06:24:00;;;;;;;;;;;4.30;99.90;;;3.46;100.00;100237.88;4987319;28;1441;-68
2023/12/16 06:26:27;;;;;;;;;;;4.30;99.90;;;3.21;100.00;100228.59;4985535;28;1697;-68
2023/12/16 06:28:54;;;;;;;;;;;4.30;99.90;;;3.26;100.00;100228.72;4985660;28;1430;-69
2023/12/16 06:31:21;;;;;;;;;;;4.30;99.90;;;3.25;100.00;100232.13;5000362;28;1377;-69
2023/12/16 06:33:48;;;;;;;;;;;4.30;99.90;;;3.18;100.00;100237.91;4986121;28;1914;-68
2023/12/16 06:36:15;;;;;;;;;;;4.20;99.90;;;2.92;100.00;100236.28;5015437;28;1348;-68
2023/12/16 06:38:42;;;;;;;;;;;4.10;99.90;;;2.88;100.00;100236.16;5015957;28;1411;-69
2023/12/16 06:41:09;;;;;;;;;;;4.00;99.90;;;2.88;100.00;100246.41;4985819;28;1383;-68
2023/12/16 06:43:36;;;;;;;;;;;3.80;99.90;;;2.75;100.00;100247.72;5014284;28;1429;-69
2023/12/16 06:46:03;;;;;;;;;;;3.70;99.90;;;2.55;100.00;100257.31;4985434;28;1414;-68
2023/12/16 06:48:30;;;;;;;;;;;3.60;99.90;;;2.72;100.00;100255.31;5003243;28;1696;-68
2023/12/16 06:50:59;;;;;;;;;;;3.70;99.90;;;2.50;100.00;100258.88;4984724;28;1502;-68
2023/12/16 06:53:26;;;;;;;;;;;3.60;99.90;;;2.59;100.00;100264.31;4986651;28;1931;-68
2023/12/16 06:55:56;;;;;;;;;;;3.70;99.90;;;2.46;100.00;100255.34;4985970;28;1378;-69
2023/12/16 06:58:25;;;;;;;;;;;3.60;99.90;;;2.41;100.00;100266.25;4986010;28;1220;-68
2023/12/16 07:00:52;;;;;;;;;;;3.50;99.90;;;2.44;100.00;100256.09;4986405;28;1437;-69
2023/12/16 07:03:19;;;;;;;;;;;3.40;99.90;;;2.43;100.00;100265.50;4985624;28;1355;-68
2023/12/16 07:05:46;;;;;;;;;;;3.30;99.90;;;2.33;100.00;100268.59;4985501;28;1462;-68
2023/12/16 07:08:13;;;;;;;;;;;3.30;99.90;;;2.42;100.00;100265.47;5017927;28;1482;-69
2023/12/16 07:10:41;;;;;;;;;;;3.30;99.90;;;2.46;100.00;100264.72;4968918;28;1406;-69
2023/12/16 07:13:08;;;;;;;;;;;3.30;99.90;;;2.36;100.00;100270.38;5002824;28;1910;-69
2023/12/16 07:15:35;;;;;;;;;;;3.40;99.90;;;2.58;100.00;100274.50;4986539;28;1394;-69
2023/12/16 07:18:02;;;;;;;;;;;3.30;99.90;;;2.58;100.00;100277.97;4989531;28;1369;-68
2023/12/16 07:20:29;;;;;;;;;;;3.30;99.90;;;2.65;100.00;100276.47;4988920;28;1421;-69
2023/12/16 07:22:56;;;;;;;;;;;3.30;99.90;;;2.63;100.00;100276.41;5018135;28;1404;-68
2023/12/16 07:25:23;;;;;;;;;;;3.40;99.90;;;2.78;100.00;100278.56;4990798;28;1350;-69
2023/12/16 07:27:54;;;;;;;;;;;3.40;99.90;;;2.60;100.00;100278.88;4987992;28;1411;-68
2023/12/16 07:30:20;;;;;;;;;;;3.40;99.90;;;2.69;100.00;100270.59;4989861;28;1402;-69
2023/12/16 07:32:47;;;;;;;;;;;3.60;99.90;;;2.68;100.00;100269.72;4990140;28;1743;-68
2023/12/16 07:35:15;;;;;;;;;;;3.60;99.90;;;2.79;100.00;100266.66;4989273;28;1938;-68
2023/12/16 07:37:42;;;;;;;;;;;3.50;99.90;;;2.78;100.00;100265.75;4988878;28;1348;-68
2023/12/16 07:40:10;;;;;;;;;;;3.50;99.90;;;2.97;100.00;100268.94;4988124;28;1621;-69
2023/12/16 07:42:38;;;;;;;;;;;3.40;99.90;;;3.00;100.00;100266.44;4988359;28;1426;-68
2023/12/16 07:45:07;;;;;;;;;;;3.40;99.90;;;2.81;100.00;100259.88;5020482;28;1483;-68
2023/12/16 07:47:34;;;;;;;;;;;3.50;99.90;;;2.91;100.00;100261.91;4987827;28;1249;-68
2023/12/16 07:50:01;;;;;;;;;;;3.70;99.90;;;3.25;100.00;100266.34;5021059;28;1395;-68
2023/12/16 07:52:29;;;;;;;;;;;3.80;99.90;;;3.15;100.00;100272.06;4988489;28;1679;-68
2023/12/16 07:54:57;;;;;;;;;;;3.80;99.90;;;3.08;100.00;100267.53;4989221;28;1910;-68
2023/12/16 07:57:24;;;;;;;;;;;3.80;99.90;;;2.84;100.00;100272.78;5020019;28;1293;-68
2023/12/16 07:59:50;;;;;;;;;;;3.70;99.90;;;2.91;100.00;100274.72;4987865;28;1409;-68
2023/12/16 08:02:20;;;;;;;;;;;3.80;99.90;;;3.25;100.00;100281.75;4990883;28;1382;-68
2023/12/16 08:04:48;;;;;;;;;;;3.90;99.90;;;3.09;100.00;100285.56;5016801;28;1532;-67
2023/12/16 08:07:15;;;;;;;;;;;4.00;99.90;;;3.25;100.00;100286.91;4987910;28;1469;-70
2023/12/16 08:09:42;;;;;;;;;;;4.10;99.90;;;3.25;100.00;100292.03;4988561;28;1775;-69
2023/12/16 08:12:09;;;;;;;;;;;4.20;99.90;;;3.52;100.00;100286.84;4986859;28;1354;-68
2023/12/16 08:14:36;;;;;;;;;;;4.30;99.90;;;3.45;100.00;100297.78;4984797;28;1985;-68
2023/12/16 08:17:03;;;;;;;;;;;4.30;99.90;;;3.44;100.00;100302.84;4990802;28;1290;-69
2023/12/16 08:19:30;;;;;;;;;;;4.40;99.90;;;3.38;100.00;100295.84;4987285;28;1425;-68
2023/12/16 08:21:59;;;;;;;;;;;4.20;99.90;;;3.43;100.00;100298.56;4988342;28;1398;-68
2023/12/16 08:24:26;;;;;;;;;;;4.10;99.90;;;3.43;100.00;100296.00;4989203;28;1375;-68
2023/12/16 08:26:54;;;;;;;;;;;4.20;99.90;;;3.64;100.00;100296.59;4972307;28;1475;-69
2023/12/16 08:29:20;;;;;;;;;;;4.30;99.90;;;3.48;100.00;100295.28;4988709;28;1528;-68
2023/12/16 08:31:47;;;;;;;;;;;4.20;99.90;;;3.58;100.00;100293.88;4987652;28;1339;-68
2023/12/16 08:34:14;;;;;;;;;;;4.20;99.90;;;3.33;100.00;100297.38;5018620;28;1898;-68
2023/12/16 08:36:41;;;;;;;;;;;4.20;99.90;;;3.59;100.00;100299.88;4989455;28;1405;-68
2023/12/16 08:39:08;;;;;;;;;;;4.20;99.90;;;3.78;100.00;100303.00;4989316;28;1394;-69
2023/12/16 08:41:35;;;;;;;;;;;4.20;99.90;;;3.77;100.00;100308.13;4988836;28;1386;-67
2023/12/16 08:44:03;;;;;;;;;;;4.20;99.90;;;3.66;100.00;100314.63;4988868;28;1383;-68
2023/12/16 08:46:30;;;;;;;;;;;4.30;99.90;;;4.06;100.00;100314.06;5016605;28;1459;-68
2023/12/16 08:48:57;;;;;;;;;;;4.50;99.90;;;4.02;100.00;100321.66;4988195;28;1442;-69
2023/12/16 08:51:25;;;;;;;;;;;4.70;99.90;;;4.21;100.00;100320.44;4988962;28;1387;-68
2023/12/16 08:53:53;;;;;;;;;;;4.60;99.90;;;4.39;100.00;100331.22;4989793;28;1989;-69
2023/12/16 08:56:20;;;;;;;;;;;4.60;99.90;;;4.42;100.00;100325.28;4988299;28;1395;-69
2023/12/16 08:58:47;;;;;;;;;;;4.60;99.90;;;4.24;100.00;100335.94;4987459;28;1323;-68
2023/12/16 09:01:14;;;;;;;;;;;4.60;99.90;;;4.37;100.00;100333.75;4982761;28;1657;-68
2023/12/16 09:03:44;;;;;;;;;;;4.70;99.90;;;4.35;100.00;100325.13;4988036;28;1439;-68
2023/12/16 09:06:11;;;;;;;;;;;4.80;99.90;;;4.40;100.00;100331.28;4988679;28;1362;-68
2023/12/16 09:08:38;;;;;;;;;;;4.70;99.90;;;4.55;100.00;100327.34;4970444;28;1325;-69
2023/12/16 09:11:05;;;;;;;;;;;4.80;99.90;;;4.52;100.00;100338.44;4971419;28;1447;-68
2023/12/16 09:13:32;;;;;;;;;;;4.80;99.90;;;4.37;100.00;100336.31;4986594;28;1906;-68
2023/12/16 09:15:59;;;;;;;;;;;4.80;99.90;;;4.33;100.00;100337.09;4982964;28;1446;-68
2023/12/16 09:18:26;;;;;;;;;;;4.90;99.90;;;4.69;100.00;100330.28;4988651;28;1374;-69
2023/12/16 09:20:53;;;;;;;;;;;5.10;99.90;;;4.49;100.00;100340.03;4985987;28;1394;-69
2023/12/16 09:23:20;;;;;;;;;;;5.20;99.90;;;4.81;100.00;100344.34;4988857;28;1447;-69
2023/12/16 09:25:47;;;;;;;;;;;5.30;99.90;;;4.55;100.00;100353.94;4988656;28;1417;-68
2023/12/16 09:28:13;;;;;;;;;;;5.30;99.90;;;4.75;100.00;100345.88;4986628;28;1920;-69
2023/12/16 09:30:40;;;;;;;;;;;5.40;99.90;;;4.72;100.00;100349.25;4987231;28;1339;-68
2023/12/16 09:33:08;;;;;;;;;;;5.30;99.90;;;4.55;100.00;100355.66;4989313;28;1297;-68
2023/12/16 09:35:35;;;;;;;;;;;5.30;99.90;;;4.86;100.00;100346.13;4969664;28;1926;-68
2023/12/16 09:38:02;;;;;;;;;;;5.50;99.90;;;5.04;100.00;100351.75;4988521;28;1363;-68
2023/12/16 09:40:29;;;;;;;;;;;5.50;99.90;;;5.15;100.00;100362.28;5018088;28;1294;-68
2023/12/16 09:43:05;;;;;;;;;;;5.50;99.90;;;5.24;100.00;100352.19;4991634;28;1352;-69
2023/12/16 09:45:32;;;;;;;;;;;5.40;99.90;;;5.44;100.00;100343.22;4987122;28;1165;-68
2023/12/16 09:47:59;;;;;;;;;;;5.40;99.90;;;5.10;100.00;100348.44;4986007;28;1403;-69
2023/12/16 09:50:27;;;;;;;;;;;5.50;99.90;;;5.47;100.00;100345.00;4987338;28;1302;-68
2023/12/16 09:52:54;;;;;;;;;;;5.60;99.90;;;5.57;100.00;100336.66;4987630;28;1351;-68
2023/12/16 09:55:21;;;;;;;;;;;5.60;99.90;;;5.26;100.00;100334.22;5017331;28;1922;-68
2023/12/16 09:57:48;;;;;;;;;;;5.70;99.90;;;5.29;100.00;100332.59;4972270;28;1006;-69
2023/12/16 10:00:17;;;;;;;;;;;5.70;99.90;;;5.44;100.00;100332.94;5018428;28;1080;-69
2023/12/16 10:02:47;;;;;;;;;;;5.70;99.90;;;5.48;100.00;100326.16;4987388;28;1521;-69
2023/12/16 10:05:15;;;;;;;;;;;5.80;99.90;;;5.47;100.00;100319.25;5001541;28;1208;-68
2023/12/16 10:07:42;;;;;;;;;;;5.90;99.90;;;5.62;100.00;100310.97;5002320;28;1693;-69
2023/12/16 10:10:10;;;;;;;;;;;5.90;99.90;;;5.66;100.00;100305.06;4988480;28;1414;-68
2023/12/16 10:12:37;;;;;;;;;;;5.90;99.90;;;5.49;100.00;100302.13;4986662;28;1391;-68
2023/12/16 10:15:04;;;;;;;;;;;5.90;99.90;;;5.93;100.00;100306.44;5015501;28;1968;-69
2023/12/16 10:17:31;;;;;;;;;;;5.90;99.90;;;6.03;100.00;100291.22;4986594;28;1343;-69
2023/12/16 10:19:58;;;;;;;;;;;6.00;99.90;;;6.16;100.00;100275.97;4985857;28;1379;-68
2023/12/16 10:22:25;;;;;;;;;;;6.00;99.90;;;6.08;100.00;100281.84;4985478;28;1359;-68
2023/12/16 10:24:53;;;;;;;;;;;6.10;99.90;;;6.28;100.00;100271.06;4987774;28;1279;-68
2023/12/16 10:27:22;;;;;;;;;;;6.20;99.90;;;6.49;100.00;100268.84;5001835;28;1306;-68
2023/12/16 10:29:52;;;;;;;;;;;6.30;99.90;;;6.44;100.00;100264.47;4988332;28;1351;-68
2023/12/16 10:32:33;;;;;;;;;;;6.50;99.90;;;6.33;100.00;100256.53;4984949;28;1382;-69
2023/12/16 10:35:02;;;;;;;;;;;6.60;99.90;;;6.28;100.00;100265.91;4985541;28;1992;-68
2023/12/16 10:37:29;;;;;;;;;;;6.60;99.90;;;6.17;100.00;100264.84;4989549;28;1530;-68
2023/12/16 10:39:56;;;;;;;;;;;6.60;99.90;;;5.87;100.00;100271.13;4987887;28;1306;-69
2023/12/16 10:42:23;;;;;;;;;;;6.60;99.90;;;5.97;100.00;100260.16;4982134;28;1668;-69
2023/12/16 10:44:52;;;;;;;;;;;6.70;99.90;;;6.31;100.00;100268.53;5015915;28;1609;-69
2023/12/16 10:47:19;;;;;;;;;;;6.60;99.90;;;6.36;100.00;100266.03;4987179;28;1957;-69
2023/12/16 10:49:46;;;;;;;;;;;6.50;99.90;;;6.29;100.00;100262.47;4982564;28;1596;-69
2023/12/16 10:52:36;;;;;;;;;;;6.70;99.90;;;6.25;100.00;100255.53;4986286;28;1702;-69
2023/12/16 10:55:06;;;;;;;;;;;6.70;99.90;;;6.24;100.00;100262.38;4986591;28;1902;-69
2023/12/16 10:57:48;;;;;;;;;;;6.80;99.90;;;6.51;100.00;100257.69;5012654;28;1554;-68
2023/12/16 11:00:23;;;;;;;;;;;6.90;99.90;;;6.84;100.00;100257.34;4982420;28;1755;-68
2023/12/16 11:03:02;;;;;;;;;;;7.10;99.90;;;6.62;100.00;100257.03;4998208;28;1695;-67
2023/12/16 11:05:32;;;;;;;;;;;7.10;99.90;;;6.30;100.00;100253.03;4988224;28;1852;-68
2023/12/16 11:08:03;;;;;;;;;;;7.10;99.90;;;6.15;100.00;100258.78;4991087;28;1563;-69
2023/12/16 11:10:31;;;;;;;;;;;7.10;99.90;;;6.05;100.00;100253.44;5014718;28;1611;-69
2023/12/16 11:13:05;;;;;;;;;;;7.10;99.90;;;6.31;100.00;100244.44;4979234;28;1720;-69
2023/12/16 11:15:33;;;;;;;;;;;7.10;99.90;;;6.35;100.00;100243.66;4965877;28;1927;-69
2023/12/16 11:18:08;;;;;;;;;;;7.10;99.90;;;6.57;100.00;100239.72;5016422;28;1570;-69
2023/12/16 11:20:42;;;;;;;;;;;7.10;99.90;;;6.53;100.00;100233.66;4980201;28;1838;-68
2023/12/16 11:23:10;;;;;;;;;;;7.20;99.90;;;6.57;100.00;100227.69;4986457;28;1549;-68
2023/12/16 11:25:37;;;;;;;;;;;7.30;99.90;;;6.47;100.00;100236.97;4988495;28;1837;-69